PVG77 EPWR-BIKF
Flight info
| Callsign | PVG77 |
|---|---|
| Flight time | 2h 58m |
| Altitude | 36000 |
| Route | XIDNA DCT TUPUR DCT ELTUB DCT POKEN DCT AAL L621 TUKMU DCT GUNPA/M084F380 DCT NASBU NASBU5N |
| Aircraft | B77W/H-SDE1E2E3FGHIJ2J3J4J5M1RWXY/LB1D1 |
Departure
| Time | 2026-05-04 13:47 |
|---|---|
| Airport | Copernicus Wrocław Airport (EPWR) |
Arrival
| Time | 2026-05-04 16:46 |
|---|---|
| Airport | Keflavik International Airport (BIKF) |
| Time | Latitude | Longitude | Altitude | Speed | Heading |
|---|---|---|---|---|---|
| 2026-05-04 13:25 | 51.10932 | 16.87713 | 406 ft | 0 kts | 25° |
| 2026-05-04 13:28 | 51.10929 | 16.87711 | 406 ft | 1 kts | 25° |
| 2026-05-04 13:28 | 51.10915 | 16.87702 | 407 ft | 2 kts | 9° |
| 2026-05-04 13:28 | 51.10901 | 16.87702 | 407 ft | 2 kts | 349° |
| 2026-05-04 13:29 | 51.10887 | 16.87709 | 407 ft | 2 kts | 331° |
| 2026-05-04 13:29 | 51.10875 | 16.87723 | 407 ft | 2 kts | 313° |
| 2026-05-04 13:29 | 51.10867 | 16.87741 | 407 ft | 0 kts | 296° |
| 2026-05-04 13:29 | 51.10865 | 16.87746 | 407 ft | 0 kts | 295° |
| 2026-05-04 13:39 | 51.10876 | 16.87707 | 407 ft | 10 kts | 292° |
| 2026-05-04 13:39 | 51.10921 | 16.87562 | 407 ft | 19 kts | 295° |
| 2026-05-04 13:40 | 51.10885 | 16.87435 | 409 ft | 10 kts | 179° |
| 2026-05-04 13:40 | 51.10856 | 16.87422 | 409 ft | 10 kts | 214° |
| 2026-05-04 13:40 | 51.10799 | 16.87324 | 409 ft | 12 kts | 220° |
| 2026-05-04 13:40 | 51.10701 | 16.87281 | 411 ft | 24 kts | 160° |
| 2026-05-04 13:41 | 51.10553 | 16.87660 | 411 ft | 56 kts | 115° |
| 2026-05-04 13:41 | 51.10368 | 16.88257 | 406 ft | 59 kts | 119° |
| 2026-05-04 13:41 | 51.10194 | 16.88814 | 403 ft | 54 kts | 115° |
| 2026-05-04 13:42 | 51.09964 | 16.89791 | 406 ft | 30 kts | 39° |
| 2026-05-04 13:42 | 51.10035 | 16.89877 | 404 ft | 8 kts | 178° |
| 2026-05-04 13:42 | 51.10016 | 16.89866 | 405 ft | 0 kts | 207° |
| 2026-05-04 13:45 | 51.10014 | 16.89865 | 405 ft | 1 kts | 207° |
| 2026-05-04 13:45 | 51.09983 | 16.89839 | 406 ft | 5 kts | 208° |
| 2026-05-04 13:46 | 51.09948 | 16.89810 | 406 ft | 5 kts | 208° |
| 2026-05-04 13:46 | 51.09926 | 16.89773 | 406 ft | 4 kts | 257° |
| 2026-05-04 13:46 | 51.09927 | 16.89754 | 406 ft | 0 kts | 286° |
| 2026-05-04 13:47 | 51.10039 | 16.89342 | 405 ft | 87 kts | 296° |
| 2026-05-04 13:47 | 51.10439 | 16.88020 | 410 ft | 175 kts | 297° |
| 2026-05-04 13:47 | 51.11103 | 16.86011 | 864 ft | 221 kts | 298° |
| 2026-05-04 13:47 | 51.11778 | 16.83786 | 1940 ft | 231 kts | 294° |
| 2026-05-04 13:48 | 51.12447 | 16.81488 | 2737 ft | 241 kts | 294° |
| 2026-05-04 13:48 | 51.13182 | 16.79052 | 3556 ft | 249 kts | 295° |
| 2026-05-04 13:48 | 51.13945 | 16.76546 | 4340 ft | 262 kts | 295° |
| 2026-05-04 13:48 | 51.14746 | 16.73916 | 5196 ft | 271 kts | 295° |
| 2026-05-04 13:49 | 51.15563 | 16.71234 | 6161 ft | 275 kts | 295° |
| 2026-05-04 13:49 | 51.16399 | 16.68485 | 7169 ft | 277 kts | 295° |
| 2026-05-04 13:49 | 51.17222 | 16.65775 | 8208 ft | 278 kts | 294° |
| 2026-05-04 13:49 | 51.18055 | 16.63041 | 9163 ft | 280 kts | 295° |
| 2026-05-04 13:50 | 51.19239 | 16.60557 | 10037 ft | 289 kts | 317° |
| 2026-05-04 13:50 | 51.20998 | 16.58963 | 10892 ft | 300 kts | 340° |
| 2026-05-04 13:50 | 51.23100 | 16.58589 | 11483 ft | 320 kts | 4° |
| 2026-05-04 13:50 | 51.25285 | 16.59731 | 11939 ft | 343 kts | 27° |
| 2026-05-04 13:51 | 51.27386 | 16.61706 | 12486 ft | 361 kts | 30° |
| 2026-05-04 13:51 | 51.29600 | 16.63781 | 13062 ft | 377 kts | 28° |
| 2026-05-04 13:51 | 51.31914 | 16.65874 | 13660 ft | 392 kts | 28° |
| 2026-05-04 13:51 | 51.34279 | 16.68122 | 14271 ft | 407 kts | 34° |
| 2026-05-04 13:52 | 51.38375 | 16.74694 | 15760 ft | 429 kts | 52° |
| 2026-05-04 13:52 | 51.40343 | 16.78269 | 16733 ft | 432 kts | 43° |
| 2026-05-04 13:52 | 51.42625 | 16.81376 | 17671 ft | 434 kts | 35° |
| 2026-05-04 13:53 | 51.45136 | 16.84063 | 18514 ft | 439 kts | 29° |
| 2026-05-04 13:53 | 51.47800 | 16.86414 | 19344 ft | 444 kts | 25° |
| 2026-05-04 13:53 | 51.50576 | 16.88514 | 20168 ft | 449 kts | 21° |
| 2026-05-04 13:54 | 51.56433 | 16.92225 | 21870 ft | 457 kts | 18° |
| 2026-05-04 13:54 | 51.59411 | 16.93928 | 22686 ft | 461 kts | 17° |
| 2026-05-04 13:54 | 51.65559 | 16.96823 | 24163 ft | 468 kts | 7° |
| 2026-05-04 13:55 | 51.68813 | 16.97269 | 24861 ft | 470 kts | 357° |
| 2026-05-04 13:55 | 51.75215 | 16.95667 | 26283 ft | 472 kts | 339° |
| 2026-05-04 13:55 | 51.78244 | 16.93652 | 26968 ft | 472 kts | 331° |
| 2026-05-04 13:56 | 51.81175 | 16.91213 | 27630 ft | 476 kts | 329° |
| 2026-05-04 13:56 | 51.84108 | 16.88751 | 28284 ft | 481 kts | 330° |
| 2026-05-04 13:56 | 51.90086 | 16.83804 | 29759 ft | 485 kts | 330° |
| 2026-05-04 13:57 | 51.93053 | 16.81371 | 30650 ft | 483 kts | 330° |
| 2026-05-04 13:57 | 51.96032 | 16.78937 | 31667 ft | 477 kts | 330° |
| 2026-05-04 13:58 | 52.04769 | 16.71814 | 33937 ft | 468 kts | 329° |
| 2026-05-04 13:58 | 52.10569 | 16.67085 | 35047 ft | 467 kts | 329° |
| 2026-05-04 13:58 | 52.13439 | 16.64743 | 35515 ft | 465 kts | 329° |
| 2026-05-04 13:59 | 52.16328 | 16.62383 | 35868 ft | 466 kts | 329° |
| 2026-05-04 13:59 | 52.19237 | 16.60002 | 35927 ft | 469 kts | 329° |
| 2026-05-04 14:00 | 52.27893 | 16.52908 | 35934 ft | 465 kts | 329° |
| 2026-05-04 14:00 | 52.36568 | 16.45768 | 35930 ft | 466 kts | 329° |
| 2026-05-04 14:01 | 52.42316 | 16.41020 | 35930 ft | 467 kts | 329° |
| 2026-05-04 14:02 | 52.50967 | 16.33848 | 35929 ft | 466 kts | 328° |
| 2026-05-04 14:02 | 52.56743 | 16.29043 | 35930 ft | 466 kts | 328° |
| 2026-05-04 14:03 | 52.62502 | 16.24236 | 35930 ft | 466 kts | 328° |
| 2026-05-04 14:03 | 52.68274 | 16.19406 | 35930 ft | 466 kts | 328° |
| 2026-05-04 14:04 | 52.76880 | 16.12176 | 35934 ft | 466 kts | 327° |
| 2026-05-04 14:04 | 52.82637 | 16.07322 | 35934 ft | 466 kts | 327° |
| 2026-05-04 14:05 | 52.91260 | 16.00023 | 35936 ft | 466 kts | 327° |
| 2026-05-04 14:06 | 52.97035 | 15.95117 | 35933 ft | 466 kts | 327° |
| 2026-05-04 14:06 | 53.02786 | 15.90216 | 35937 ft | 467 kts | 327° |
| 2026-05-04 14:07 | 53.08521 | 15.85315 | 35940 ft | 466 kts | 327° |
| 2026-05-04 14:07 | 53.14264 | 15.80419 | 35929 ft | 467 kts | 329° |
| 2026-05-04 14:08 | 53.20257 | 15.76151 | 35937 ft | 471 kts | 332° |
| 2026-05-04 14:08 | 53.26265 | 15.71913 | 35934 ft | 470 kts | 331° |
| 2026-05-04 14:09 | 53.35250 | 15.65494 | 35927 ft | 469 kts | 331° |
| 2026-05-04 14:10 | 53.44231 | 15.59019 | 35928 ft | 470 kts | 331° |
| 2026-05-04 14:10 | 53.50204 | 15.54689 | 35934 ft | 470 kts | 331° |
| 2026-05-04 14:11 | 53.56188 | 15.50335 | 35929 ft | 471 kts | 330° |
| 2026-05-04 14:11 | 53.65160 | 15.43781 | 35936 ft | 470 kts | 330° |
| 2026-05-04 14:12 | 53.71129 | 15.39423 | 35936 ft | 471 kts | 331° |
| 2026-05-04 14:13 | 53.80124 | 15.32871 | 35948 ft | 471 kts | 330° |
| 2026-05-04 14:13 | 53.86116 | 15.28488 | 35949 ft | 469 kts | 330° |
| 2026-05-04 14:14 | 53.92078 | 15.24112 | 35938 ft | 470 kts | 330° |
| 2026-05-04 14:14 | 54.01106 | 15.17458 | 35948 ft | 472 kts | 330° |
| 2026-05-04 14:15 | 54.13083 | 15.08582 | 35938 ft | 472 kts | 330° |
| 2026-05-04 14:16 | 54.22075 | 15.01882 | 35929 ft | 473 kts | 330° |
| 2026-05-04 14:17 | 54.31095 | 14.95129 | 35929 ft | 473 kts | 330° |
| 2026-05-04 14:18 | 54.40072 | 14.88375 | 35937 ft | 472 kts | 330° |
| 2026-05-04 14:19 | 54.52058 | 14.79305 | 35938 ft | 475 kts | 330° |
| 2026-05-04 14:19 | 54.58102 | 14.74711 | 35926 ft | 474 kts | 330° |
| 2026-05-04 14:20 | 54.64109 | 14.70130 | 35922 ft | 474 kts | 330° |
| 2026-05-04 14:20 | 54.70105 | 14.65542 | 35911 ft | 473 kts | 329° |
| 2026-05-04 14:21 | 54.79070 | 14.58561 | 35907 ft | 472 kts | 326° |
| 2026-05-04 14:21 | 54.84267 | 14.52039 | 35912 ft | 458 kts | 310° |
| 2026-05-04 14:22 | 54.88678 | 14.44127 | 35911 ft | 456 kts | 308° |
| 2026-05-04 14:22 | 54.93039 | 14.36167 | 35893 ft | 455 kts | 308° |
| 2026-05-04 14:23 | 54.99508 | 14.24283 | 35922 ft | 452 kts | 307° |
| 2026-05-04 14:24 | 55.03840 | 14.16282 | 35907 ft | 454 kts | 307° |
| 2026-05-04 14:24 | 55.08147 | 14.08301 | 35910 ft | 453 kts | 308° |
| 2026-05-04 14:25 | 55.12426 | 14.00340 | 35884 ft | 454 kts | 308° |
| 2026-05-04 14:25 | 55.18900 | 13.88248 | 35900 ft | 455 kts | 308° |
| 2026-05-04 14:26 | 55.23192 | 13.80198 | 35910 ft | 455 kts | 308° |
| 2026-05-04 14:26 | 55.27494 | 13.72100 | 35903 ft | 455 kts | 308° |
| 2026-05-04 14:27 | 55.31798 | 13.63971 | 35905 ft | 456 kts | 308° |
| 2026-05-04 14:27 | 55.36070 | 13.55876 | 35897 ft | 456 kts | 308° |
| 2026-05-04 14:28 | 55.40363 | 13.47710 | 35903 ft | 457 kts | 308° |
| 2026-05-04 14:28 | 55.44658 | 13.39517 | 35902 ft | 457 kts | 308° |
| 2026-05-04 14:29 | 55.53203 | 13.23126 | 35911 ft | 457 kts | 308° |
| 2026-05-04 14:30 | 55.57464 | 13.14909 | 35906 ft | 456 kts | 308° |
| 2026-05-04 14:31 | 55.63877 | 13.02490 | 35915 ft | 458 kts | 308° |
| 2026-05-04 14:32 | 55.72404 | 12.85877 | 35920 ft | 457 kts | 308° |
| 2026-05-04 14:32 | 55.76673 | 12.77516 | 35917 ft | 457 kts | 308° |
| 2026-05-04 14:33 | 55.80915 | 12.69179 | 35915 ft | 457 kts | 309° |
| 2026-05-04 14:33 | 55.85142 | 12.60840 | 35914 ft | 457 kts | 309° |
| 2026-05-04 14:34 | 55.89402 | 12.52410 | 35907 ft | 456 kts | 309° |
| 2026-05-04 14:34 | 55.93607 | 12.44055 | 35905 ft | 457 kts | 309° |
| 2026-05-04 14:35 | 55.97844 | 12.35611 | 35907 ft | 456 kts | 309° |
| 2026-05-04 14:35 | 56.02048 | 12.27200 | 35908 ft | 456 kts | 308° |
| 2026-05-04 14:36 | 56.06231 | 12.18802 | 35911 ft | 457 kts | 308° |
| 2026-05-04 14:36 | 56.10437 | 12.10328 | 35908 ft | 456 kts | 308° |
| 2026-05-04 14:37 | 56.14639 | 12.01833 | 35907 ft | 457 kts | 308° |
| 2026-05-04 14:37 | 56.18831 | 11.93327 | 35905 ft | 455 kts | 308° |
| 2026-05-04 14:38 | 56.22987 | 11.84862 | 35900 ft | 456 kts | 309° |
| 2026-05-04 14:38 | 56.27162 | 11.76330 | 35904 ft | 456 kts | 309° |
| 2026-05-04 14:39 | 56.31338 | 11.67764 | 35897 ft | 455 kts | 309° |
| 2026-05-04 14:39 | 56.35489 | 11.59220 | 35897 ft | 456 kts | 309° |
| 2026-05-04 14:40 | 56.41682 | 11.46415 | 35901 ft | 454 kts | 309° |
| 2026-05-04 14:40 | 56.45838 | 11.37782 | 35895 ft | 456 kts | 309° |
| 2026-05-04 14:41 | 56.49969 | 11.29172 | 35897 ft | 454 kts | 308° |
| 2026-05-04 14:42 | 56.58200 | 11.11920 | 35900 ft | 454 kts | 308° |
| 2026-05-04 14:42 | 56.62287 | 11.03308 | 35904 ft | 454 kts | 308° |
| 2026-05-04 14:43 | 56.66404 | 10.94600 | 35898 ft | 452 kts | 308° |
| 2026-05-04 14:43 | 56.70483 | 10.85941 | 35898 ft | 453 kts | 308° |
| 2026-05-04 14:44 | 56.74542 | 10.77293 | 35887 ft | 452 kts | 308° |
| 2026-05-04 14:44 | 56.78603 | 10.68610 | 35889 ft | 453 kts | 308° |
| 2026-05-04 14:45 | 56.82694 | 10.59831 | 35880 ft | 452 kts | 308° |
| 2026-05-04 14:45 | 56.86736 | 10.51125 | 35894 ft | 453 kts | 308° |
| 2026-05-04 14:46 | 56.90780 | 10.42380 | 35886 ft | 451 kts | 308° |
| 2026-05-04 14:46 | 56.94799 | 10.33660 | 35881 ft | 450 kts | 307° |
| 2026-05-04 14:47 | 56.98799 | 10.24948 | 35892 ft | 449 kts | 307° |
| 2026-05-04 14:47 | 57.02797 | 10.16211 | 35895 ft | 449 kts | 307° |
| 2026-05-04 14:48 | 57.06791 | 10.07446 | 35894 ft | 449 kts | 307° |
| 2026-05-04 14:48 | 57.10790 | 9.98643 | 35893 ft | 448 kts | 308° |
| 2026-05-04 14:49 | 57.14949 | 9.90122 | 35904 ft | 449 kts | 309° |
| 2026-05-04 14:49 | 57.19103 | 9.81670 | 35895 ft | 448 kts | 309° |
| 2026-05-04 14:50 | 57.23240 | 9.73196 | 35895 ft | 448 kts | 309° |
| 2026-05-04 14:50 | 57.27403 | 9.64625 | 35893 ft | 448 kts | 309° |
| 2026-05-04 14:51 | 57.31514 | 9.56123 | 35889 ft | 447 kts | 309° |
| 2026-05-04 14:51 | 57.35651 | 9.47532 | 35883 ft | 447 kts | 309° |
| 2026-05-04 14:52 | 57.39760 | 9.38968 | 35882 ft | 447 kts | 309° |
| 2026-05-04 14:52 | 57.43873 | 9.30363 | 35882 ft | 446 kts | 308° |
| 2026-05-04 14:53 | 57.47952 | 9.21792 | 35888 ft | 446 kts | 308° |
| 2026-05-04 14:53 | 57.52024 | 9.13199 | 35888 ft | 445 kts | 308° |
| 2026-05-04 14:54 | 57.56095 | 9.04576 | 35881 ft | 446 kts | 308° |
| 2026-05-04 14:54 | 57.60156 | 8.95946 | 35880 ft | 445 kts | 308° |
| 2026-05-04 14:55 | 57.64220 | 8.87274 | 35889 ft | 446 kts | 308° |
| 2026-05-04 14:55 | 57.68282 | 8.78595 | 35875 ft | 444 kts | 309° |
| 2026-05-04 14:56 | 57.72533 | 8.70183 | 35875 ft | 446 kts | 310° |
| 2026-05-04 14:56 | 57.76749 | 8.61848 | 35864 ft | 445 kts | 310° |
| 2026-05-04 14:57 | 57.80998 | 8.53395 | 35874 ft | 445 kts | 310° |
| 2026-05-04 14:57 | 57.85184 | 8.45025 | 35861 ft | 444 kts | 309° |
| 2026-05-04 14:58 | 57.89405 | 8.36547 | 35861 ft | 443 kts | 309° |
| 2026-05-04 14:58 | 57.93589 | 8.28108 | 35865 ft | 442 kts | 309° |
| 2026-05-04 14:59 | 57.97738 | 8.19708 | 35862 ft | 442 kts | 309° |
| 2026-05-04 15:00 | 58.03997 | 8.06977 | 35862 ft | 441 kts | 308° |
| 2026-05-04 15:00 | 58.08136 | 7.98518 | 35861 ft | 441 kts | 308° |
| 2026-05-04 15:01 | 58.14340 | 7.85781 | 35851 ft | 440 kts | 309° |
| 2026-05-04 15:01 | 58.18384 | 7.77132 | 35850 ft | 439 kts | 305° |
| 2026-05-04 15:02 | 58.22148 | 7.68155 | 35846 ft | 439 kts | 305° |
| 2026-05-04 15:02 | 58.25935 | 7.59137 | 35850 ft | 439 kts | 305° |
| 2026-05-04 15:03 | 58.29735 | 7.50086 | 35846 ft | 438 kts | 305° |
| 2026-05-04 15:03 | 58.33530 | 7.41032 | 35845 ft | 440 kts | 305° |
| 2026-05-04 15:04 | 58.37337 | 7.31925 | 35842 ft | 438 kts | 304° |
| 2026-05-04 15:04 | 58.41100 | 7.22892 | 35830 ft | 440 kts | 304° |
| 2026-05-04 15:05 | 58.44875 | 7.13798 | 35823 ft | 438 kts | 304° |
| 2026-05-04 15:05 | 58.48660 | 7.04645 | 35843 ft | 441 kts | 304° |
| 2026-05-04 15:06 | 58.52419 | 6.95526 | 35836 ft | 438 kts | 304° |
| 2026-05-04 15:07 | 58.58058 | 6.81772 | 35832 ft | 438 kts | 304° |
| 2026-05-04 15:07 | 58.61790 | 6.72627 | 35833 ft | 438 kts | 304° |
| 2026-05-04 15:08 | 58.65513 | 6.63468 | 35820 ft | 438 kts | 304° |
| 2026-05-04 15:08 | 58.69260 | 6.54215 | 35789 ft | 438 kts | 304° |
| 2026-05-04 15:09 | 58.72967 | 6.45024 | 35807 ft | 436 kts | 304° |
| 2026-05-04 15:09 | 58.76642 | 6.35878 | 35785 ft | 435 kts | 304° |
| 2026-05-04 15:10 | 58.82189 | 6.22002 | 35821 ft | 437 kts | 303° |
| 2026-05-04 15:11 | 58.87683 | 6.08181 | 35855 ft | 435 kts | 303° |
| 2026-05-04 15:11 | 58.91329 | 5.98963 | 35878 ft | 433 kts | 303° |
| 2026-05-04 15:12 | 58.94952 | 5.89767 | 35865 ft | 435 kts | 303° |
| 2026-05-04 15:12 | 58.98590 | 5.80499 | 35875 ft | 432 kts | 303° |
| 2026-05-04 15:13 | 59.02216 | 5.71220 | 36054 ft | 435 kts | 303° |
| 2026-05-04 15:13 | 59.04033 | 5.66562 | 35759 ft | 427 kts | 303° |
| 2026-05-04 15:13 | 59.05799 | 5.62023 | 35859 ft | 430 kts | 303° |
| 2026-05-04 15:14 | 59.09404 | 5.52727 | 35880 ft | 431 kts | 303° |
| 2026-05-04 15:14 | 59.12976 | 5.43480 | 35867 ft | 429 kts | 303° |
| 2026-05-04 15:15 | 59.16559 | 5.34172 | 35872 ft | 429 kts | 302° |
| 2026-05-04 15:15 | 59.20114 | 5.24897 | 35877 ft | 427 kts | 303° |
| 2026-05-04 15:16 | 59.25397 | 5.11046 | 35887 ft | 427 kts | 303° |
| 2026-05-04 15:17 | 59.30709 | 4.97037 | 35883 ft | 427 kts | 302° |
| 2026-05-04 15:17 | 59.35954 | 4.83123 | 35868 ft | 425 kts | 303° |
| 2026-05-04 15:18 | 59.39452 | 4.73795 | 35867 ft | 427 kts | 303° |
| 2026-05-04 15:19 | 59.44677 | 4.59797 | 35877 ft | 425 kts | 303° |
| 2026-05-04 15:19 | 59.49901 | 4.45715 | 35883 ft | 425 kts | 303° |
| 2026-05-04 15:20 | 59.53368 | 4.36323 | 35872 ft | 426 kts | 303° |
| 2026-05-04 15:20 | 59.56827 | 4.26914 | 36159 ft | 426 kts | 302° |
| 2026-05-04 15:21 | 59.58567 | 4.22166 | 35749 ft | 426 kts | 302° |
| 2026-05-04 15:21 | 59.60270 | 4.17516 | 35997 ft | 420 kts | 302° |
| 2026-05-04 15:22 | 59.65382 | 4.03483 | 35711 ft | 424 kts | 302° |
| 2026-05-04 15:22 | 59.67072 | 3.98828 | 36038 ft | 422 kts | 302° |
| 2026-05-04 15:22 | 59.70479 | 3.89415 | 35893 ft | 418 kts | 302° |
| 2026-05-04 15:23 | 59.73855 | 3.80044 | 35895 ft | 422 kts | 302° |
| 2026-05-04 15:23 | 59.77230 | 3.70643 | 35893 ft | 420 kts | 302° |
| 2026-05-04 15:24 | 59.83955 | 3.51795 | 35905 ft | 421 kts | 302° |
| 2026-05-04 15:25 | 59.87320 | 3.42307 | 35894 ft | 420 kts | 302° |
| 2026-05-04 15:26 | 60.10364 | 2.76270 | 35865 ft | 422 kts | 301° |
| 2026-05-04 15:26 | 60.39845 | 1.88988 | 35876 ft | 419 kts | 300° |
| 2026-05-04 15:27 | 60.68809 | 0.99906 | 35578 ft | 425 kts | 300° |
| 2026-05-04 15:28 | 60.87547 | 0.40413 | 35680 ft | 413 kts | 300° |
| 2026-05-04 15:28 | 60.96771 | 0.10547 | 36075 ft | 414 kts | 299° |
| 2026-05-04 15:28 | 61.12529 | -0.52855 | 35785 ft | 420 kts | 293° |
| 2026-05-04 15:29 | 61.20052 | -0.85641 | 36241 ft | 416 kts | 294° |
| 2026-05-04 15:30 | 61.49492 | -2.17474 | 36071 ft | 421 kts | 293° |
| 2026-05-04 15:30 | 61.70665 | -3.17847 | 36346 ft | 424 kts | 292° |
| 2026-05-04 15:31 | 61.91275 | -4.20482 | 35800 ft | 414 kts | 292° |
| 2026-05-04 15:32 | 62.10962 | -5.23701 | 35664 ft | 433 kts | 291° |
| 2026-05-04 15:32 | 62.23852 | -5.94334 | 35656 ft | 418 kts | 291° |
| 2026-05-04 15:33 | 62.36098 | -6.63946 | 35950 ft | 422 kts | 291° |
| 2026-05-04 15:34 | 62.50932 | -7.51853 | 36244 ft | 423 kts | 290° |
| 2026-05-04 15:34 | 62.51878 | -7.57599 | 36032 ft | 423 kts | 290° |
| 2026-05-04 15:34 | 62.53760 | -7.69092 | 36006 ft | 424 kts | 289° |
| 2026-05-04 15:35 | 62.56570 | -7.86389 | 36019 ft | 420 kts | 289° |
| 2026-05-04 15:36 | 62.59348 | -8.03655 | 36020 ft | 425 kts | 290° |
| 2026-05-04 15:36 | 62.61183 | -8.15152 | 36004 ft | 419 kts | 290° |
| 2026-05-04 15:37 | 62.63024 | -8.26758 | 36018 ft | 425 kts | 290° |
| 2026-05-04 15:37 | 62.64840 | -8.38279 | 36027 ft | 421 kts | 290° |
| 2026-05-04 15:38 | 62.66653 | -8.49860 | 36023 ft | 424 kts | 290° |
| 2026-05-04 15:38 | 62.68456 | -8.61445 | 36014 ft | 422 kts | 289° |
| 2026-05-04 15:39 | 62.70248 | -8.73043 | 36014 ft | 421 kts | 289° |
| 2026-05-04 15:40 | 62.72927 | -8.90521 | 36045 ft | 421 kts | 289° |
| 2026-05-04 15:40 | 62.74703 | -9.02198 | 36046 ft | 422 kts | 289° |
| 2026-05-04 15:41 | 62.76452 | -9.13786 | 36029 ft | 421 kts | 289° |
| 2026-05-04 15:41 | 62.78216 | -9.25546 | 36053 ft | 424 kts | 289° |
| 2026-05-04 15:42 | 62.79951 | -9.37190 | 36039 ft | 421 kts | 289° |
| 2026-05-04 15:42 | 62.81684 | -9.48896 | 36033 ft | 422 kts | 289° |
| 2026-05-04 15:43 | 62.83396 | -9.60550 | 36035 ft | 422 kts | 289° |
| 2026-05-04 15:43 | 62.85111 | -9.72291 | 36040 ft | 421 kts | 288° |
| 2026-05-04 15:44 | 62.86809 | -9.84007 | 36056 ft | 422 kts | 288° |
| 2026-05-04 15:44 | 62.88485 | -9.95643 | 36051 ft | 420 kts | 288° |
| 2026-05-04 15:45 | 62.90168 | -10.07412 | 36043 ft | 422 kts | 288° |
| 2026-05-04 15:45 | 62.91827 | -10.19100 | 36057 ft | 421 kts | 289° |
| 2026-05-04 15:46 | 62.93487 | -10.30866 | 36048 ft | 420 kts | 288° |
| 2026-05-04 15:46 | 62.95130 | -10.42597 | 36055 ft | 421 kts | 289° |
| 2026-05-04 15:47 | 62.96767 | -10.54375 | 36058 ft | 419 kts | 288° |
| 2026-05-04 15:47 | 62.98396 | -10.66175 | 36051 ft | 421 kts | 288° |
| 2026-05-04 15:48 | 63.00002 | -10.77889 | 36066 ft | 421 kts | 288° |
| 2026-05-04 15:48 | 63.02413 | -10.95634 | 36074 ft | 421 kts | 288° |
| 2026-05-04 15:49 | 63.04006 | -11.07470 | 36063 ft | 422 kts | 288° |
| 2026-05-04 15:49 | 63.05585 | -11.19286 | 36086 ft | 419 kts | 287° |
| 2026-05-04 15:50 | 63.07147 | -11.31057 | 36075 ft | 420 kts | 288° |
| 2026-05-04 15:50 | 63.08718 | -11.42985 | 36092 ft | 421 kts | 288° |
| 2026-05-04 15:51 | 63.10265 | -11.54824 | 36078 ft | 419 kts | 288° |
| 2026-05-04 15:51 | 63.11795 | -11.66620 | 36089 ft | 419 kts | 287° |
| 2026-05-04 15:52 | 63.13332 | -11.78547 | 36105 ft | 423 kts | 287° |
| 2026-05-04 15:52 | 63.14852 | -11.90453 | 36089 ft | 419 kts | 287° |
| 2026-05-04 15:53 | 63.16365 | -12.02376 | 36094 ft | 421 kts | 287° |
| 2026-05-04 15:53 | 63.17871 | -12.14347 | 36087 ft | 419 kts | 287° |
| 2026-05-04 15:54 | 63.19347 | -12.26167 | 36094 ft | 419 kts | 287° |
| 2026-05-04 15:54 | 63.20829 | -12.38124 | 36104 ft | 420 kts | 287° |
| 2026-05-04 15:55 | 63.22294 | -12.50037 | 36111 ft | 420 kts | 287° |
| 2026-05-04 15:55 | 63.23758 | -12.62041 | 36084 ft | 418 kts | 287° |
| 2026-05-04 15:56 | 63.25215 | -12.74073 | 36111 ft | 422 kts | 286° |
| 2026-05-04 15:56 | 63.26653 | -12.86056 | 36110 ft | 418 kts | 286° |
| 2026-05-04 15:57 | 63.28076 | -12.98000 | 36123 ft | 421 kts | 286° |
| 2026-05-04 15:57 | 63.29501 | -13.10060 | 36120 ft | 420 kts | 286° |
| 2026-05-04 15:58 | 63.30918 | -13.22150 | 36114 ft | 422 kts | 286° |
| 2026-05-04 15:58 | 63.32310 | -13.34128 | 36094 ft | 420 kts | 287° |
| 2026-05-04 15:59 | 63.33706 | -13.46237 | 36101 ft | 422 kts | 287° |
| 2026-05-04 15:59 | 63.35089 | -13.58338 | 36123 ft | 421 kts | 287° |
| 2026-05-04 16:00 | 63.36463 | -13.70459 | 36127 ft | 421 kts | 286° |
| 2026-05-04 16:00 | 63.37822 | -13.82545 | 36127 ft | 419 kts | 285° |
| 2026-05-04 16:01 | 63.39164 | -13.94588 | 36099 ft | 420 kts | 285° |
| 2026-05-04 16:01 | 63.40501 | -14.06681 | 36120 ft | 422 kts | 286° |
| 2026-05-04 16:02 | 63.41834 | -14.18850 | 36127 ft | 420 kts | 286° |
| 2026-05-04 16:03 | 63.43816 | -14.37143 | 36111 ft | 423 kts | 286° |
| 2026-05-04 16:03 | 63.45128 | -14.49378 | 36114 ft | 420 kts | 285° |
| 2026-05-04 16:04 | 63.46426 | -14.61598 | 36137 ft | 423 kts | 285° |
| 2026-05-04 16:04 | 63.48348 | -14.79900 | 36137 ft | 422 kts | 285° |
| 2026-05-04 16:05 | 63.49629 | -14.92226 | 36124 ft | 424 kts | 285° |
| 2026-05-04 16:06 | 63.51517 | -15.10613 | 36124 ft | 424 kts | 285° |
| 2026-05-04 16:07 | 63.53994 | -15.35137 | 36129 ft | 422 kts | 285° |
| 2026-05-04 16:08 | 63.56426 | -15.59665 | 36146 ft | 420 kts | 285° |
| 2026-05-04 16:09 | 63.59410 | -15.90412 | 36155 ft | 421 kts | 284° |
| 2026-05-04 16:10 | 63.61745 | -16.15019 | 36136 ft | 419 kts | 285° |
| 2026-05-04 16:11 | 63.64028 | -16.39547 | 36147 ft | 417 kts | 284° |
| 2026-05-04 16:12 | 63.67377 | -16.76443 | 36152 ft | 421 kts | 284° |
| 2026-05-04 16:13 | 63.69556 | -17.01069 | 36164 ft | 420 kts | 283° |
| 2026-05-04 16:14 | 63.71684 | -17.25647 | 36161 ft | 417 kts | 283° |
| 2026-05-04 16:16 | 63.74287 | -17.56429 | 36151 ft | 418 kts | 283° |
| 2026-05-04 16:17 | 63.76828 | -17.87320 | 36176 ft | 415 kts | 283° |
| 2026-05-04 16:18 | 63.78802 | -18.11921 | 36155 ft | 416 kts | 283° |
| 2026-05-04 16:19 | 63.81210 | -18.42726 | 36143 ft | 416 kts | 283° |
| 2026-05-04 16:20 | 63.82601 | -18.60953 | 34957 ft | 412 kts | 283° |
| 2026-05-04 16:20 | 63.83528 | -18.73246 | 33418 ft | 420 kts | 283° |
| 2026-05-04 16:21 | 63.84915 | -18.91971 | 31017 ft | 417 kts | 283° |
| 2026-05-04 16:22 | 63.85798 | -19.04090 | 30076 ft | 401 kts | 283° |
| 2026-05-04 16:22 | 63.87049 | -19.21500 | 28774 ft | 378 kts | 283° |
| 2026-05-04 16:23 | 63.88229 | -19.38135 | 27509 ft | 380 kts | 283° |
| 2026-05-04 16:24 | 63.89786 | -19.60632 | 25778 ft | 371 kts | 283° |
| 2026-05-04 16:25 | 63.90532 | -19.71594 | 24925 ft | 366 kts | 282° |
| 2026-05-04 16:26 | 63.91973 | -19.93140 | 23204 ft | 356 kts | 283° |
| 2026-05-04 16:26 | 63.93015 | -20.09021 | 21910 ft | 351 kts | 282° |
| 2026-05-04 16:27 | 63.93694 | -20.19528 | 21020 ft | 351 kts | 282° |
| 2026-05-04 16:28 | 63.93969 | -20.35290 | 19620 ft | 347 kts | 271° |
| 2026-05-04 16:28 | 63.93252 | -20.50994 | 18254 ft | 346 kts | 272° |
| 2026-05-04 16:29 | 63.91985 | -20.71589 | 16397 ft | 343 kts | 266° |
| 2026-05-04 16:30 | 63.90844 | -20.86858 | 14998 ft | 340 kts | 266° |
| 2026-05-04 16:31 | 63.90082 | -20.96914 | 14051 ft | 336 kts | 266° |
| 2026-05-04 16:31 | 63.88928 | -21.11983 | 12619 ft | 337 kts | 265° |
| 2026-05-04 16:32 | 63.87761 | -21.26994 | 11145 ft | 336 kts | 265° |
| 2026-05-04 16:33 | 63.86994 | -21.36668 | 10650 ft | 303 kts | 265° |
| 2026-05-04 16:33 | 63.86322 | -21.45124 | 10491 ft | 274 kts | 266° |
| 2026-05-04 16:34 | 63.85696 | -21.52992 | 10255 ft | 264 kts | 267° |
| 2026-05-04 16:34 | 63.85379 | -21.56972 | 10150 ft | 260 kts | 266° |
| 2026-05-04 16:35 | 63.84455 | -21.68388 | 9541 ft | 257 kts | 265° |
| 2026-05-04 16:35 | 63.83526 | -21.79729 | 8627 ft | 252 kts | 265° |
| 2026-05-04 16:36 | 63.83221 | -21.83433 | 8344 ft | 250 kts | 265° |
| 2026-05-04 16:36 | 63.82613 | -21.90780 | 7772 ft | 246 kts | 264° |
| 2026-05-04 16:37 | 63.82006 | -21.98051 | 7207 ft | 244 kts | 264° |
| 2026-05-04 16:37 | 63.81705 | -22.01656 | 6918 ft | 243 kts | 264° |
| 2026-05-04 16:37 | 63.81085 | -22.09010 | 6348 ft | 253 kts | 262° |
| 2026-05-04 16:38 | 63.80058 | -22.16269 | 5769 ft | 253 kts | 255° |
| 2026-05-04 16:39 | 63.78425 | -22.27035 | 4916 ft | 250 kts | 255° |
| 2026-05-04 16:39 | 63.77346 | -22.34147 | 4354 ft | 248 kts | 255° |
| 2026-05-04 16:40 | 63.77294 | -22.41135 | 3960 ft | 232 kts | 292° |
| 2026-05-04 16:40 | 63.78323 | -22.47711 | 3502 ft | 222 kts | 294° |
| 2026-05-04 16:41 | 63.79247 | -22.53419 | 3427 ft | 187 kts | 295° |
| 2026-05-04 16:41 | 63.81063 | -22.60132 | 3182 ft | 172 kts | 339° |
| 2026-05-04 16:42 | 63.84272 | -22.60534 | 2581 ft | 158 kts | 1° |
| 2026-05-04 16:43 | 63.86377 | -22.60545 | 2196 ft | 157 kts | 1° |
| 2026-05-04 16:43 | 63.88469 | -22.60546 | 1791 ft | 157 kts | 1° |
| 2026-05-04 16:43 | 63.89510 | -22.60548 | 1586 ft | 157 kts | 1° |
| 2026-05-04 16:44 | 63.93691 | -22.60689 | 842 ft | 156 kts | 3° |
| 2026-05-04 16:45 | 63.95770 | -22.60541 | 388 ft | 157 kts | 359° |
| 2026-05-04 16:46 | 63.98221 | -22.60371 | 172 ft | 60 kts | 343° |
| 2026-05-04 16:46 | 63.98792 | -22.60564 | 160 ft | 39 kts | 2° |
| 2026-05-04 16:47 | 63.99153 | -22.60592 | 154 ft | 4 kts | 296° |
| 2026-05-04 16:47 | 63.99173 | -22.61060 | 153 ft | 18 kts | 270° |
| 2026-05-04 16:48 | 63.99174 | -22.61910 | 150 ft | 17 kts | 268° |
| 2026-05-04 16:48 | 63.99171 | -22.62170 | 150 ft | 16 kts | 270° |
| 2026-05-04 16:49 | 63.99204 | -22.62448 | 148 ft | 5 kts | 341° |
| 2026-05-04 16:49 | 63.99231 | -22.62457 | 147 ft | 1 kts | 358° |
| 2026-05-04 16:50 | 63.99268 | -22.62460 | 147 ft | 0 kts | 360° |
| 2026-05-04 17:09 | 63.99260 | -22.62460 | 149 ft | 2 kts | 360° |
| 2026-05-04 17:10 | 63.99231 | -22.62460 | 149 ft | 2 kts | 359° |
| 2026-05-04 17:10 | 63.99189 | -22.62470 | 148 ft | 2 kts | 35° |
| 2026-05-04 17:11 | 63.99178 | -22.62492 | 147 ft | 2 kts | 56° |
| 2026-05-04 17:11 | 63.99172 | -22.62521 | 146 ft | 2 kts | 77° |
| 2026-05-04 17:11 | 63.99172 | -22.62500 | 146 ft | 6 kts | 87° |
| 2026-05-04 17:12 | 63.99172 | -22.62385 | 149 ft | 7 kts | 90° |
| 2026-05-04 17:12 | 63.99172 | -22.62150 | 150 ft | 7 kts | 90° |
| 2026-05-04 17:13 | 63.99173 | -22.61795 | 150 ft | 7 kts | 90° |
| 2026-05-04 17:14 | 63.99173 | -22.61441 | 150 ft | 7 kts | 90° |
| 2026-05-04 17:14 | 63.99173 | -22.61324 | 150 ft | 7 kts | 90° |
| 2026-05-04 17:14 | 63.99174 | -22.61088 | 153 ft | 7 kts | 90° |
| 2026-05-04 17:15 | 63.99174 | -22.60969 | 153 ft | 7 kts | 90° |
| 2026-05-04 17:15 | 63.99174 | -22.60735 | 153 ft | 7 kts | 90° |
| 2026-05-04 17:16 | 63.99175 | -22.60500 | 153 ft | 7 kts | 90° |
| 2026-05-04 17:16 | 63.99175 | -22.60147 | 153 ft | 6 kts | 90° |
| 2026-05-04 17:17 | 63.99175 | -22.60082 | 153 ft | 3 kts | 90° |
| 2026-05-04 17:17 | 63.99106 | -22.59902 | 156 ft | 7 kts | 135° |
| 2026-05-04 17:18 | 63.99070 | -22.59818 | 157 ft | 7 kts | 135° |
| 2026-05-04 17:18 | 63.98997 | -22.59649 | 160 ft | 7 kts | 135° |
| 2026-05-04 17:19 | 63.98925 | -22.59480 | 163 ft | 7 kts | 135° |
| 2026-05-04 17:19 | 63.98845 | -22.59371 | 166 ft | 4 kts | 163° |
| 2026-05-04 17:20 | 63.98772 | -22.59357 | 170 ft | 7 kts | 176° |
| 2026-05-04 17:20 | 63.98668 | -22.59341 | 177 ft | 7 kts | 176° |
| 2026-05-04 17:20 | 63.98617 | -22.59333 | 179 ft | 7 kts | 176° |
| 2026-05-04 17:21 | 63.98517 | -22.59317 | 183 ft | 5 kts | 176° |
| 2026-05-04 17:21 | 63.98460 | -22.59274 | 186 ft | 7 kts | 157° |
| 2026-05-04 17:22 | 63.98412 | -22.59226 | 189 ft | 7 kts | 157° |
| 2026-05-04 17:22 | 63.98365 | -22.59179 | 192 ft | 7 kts | 157° |
| 2026-05-04 17:23 | 63.98223 | -22.59037 | 198 ft | 7 kts | 157° |
| 2026-05-04 17:23 | 63.98175 | -22.58990 | 199 ft | 7 kts | 157° |
| 2026-05-04 17:23 | 63.98120 | -22.58917 | 199 ft | 3 kts | 118° |
| 2026-05-04 17:24 | 63.98118 | -22.58855 | 197 ft | 6 kts | 86° |
| 2026-05-04 17:24 | 63.98118 | -22.58677 | 192 ft | 0 kts | 91° |
| 2026-05-04 17:25 | 63.98118 | -22.58676 | 192 ft | 0 kts | 91° |